createdAt,value
2023-04-02T00:00:27.136Z,10.23
2023-04-02T00:01:34.091Z,10.20
2023-04-02T00:02:56.925Z,10.27
2023-04-02T00:04:03.782Z,10.19
2023-04-02T00:05:29.449Z,10.26
2023-04-02T00:06:35.648Z,10.25
2023-04-02T00:07:41.886Z,10.34
2023-04-02T00:08:45.148Z,10.31
2023-04-02T00:09:48.476Z,10.28
2023-04-02T00:11:00.683Z,10.25
2023-04-02T00:12:16.133Z,10.33
2023-04-02T00:13:32.427Z,10.23
2023-04-02T00:14:36.623Z,10.23
2023-04-02T00:15:41.681Z,10.17
2023-04-02T00:16:44.090Z,10.11
2023-04-02T00:17:48.262Z,10.14
2023-04-02T00:18:52.524Z,10.16
2023-04-02T00:20:04.699Z,10.11
2023-04-02T00:21:19.794Z,10.15
2023-04-02T00:22:26.223Z,10.16
2023-04-02T00:23:30.276Z,10.19
2023-04-02T00:24:34.170Z,10.18
2023-04-02T00:25:40.078Z,10.11
2023-04-02T00:26:47.768Z,10.15
2023-04-02T00:27:53.985Z,10.08
2023-04-02T00:28:57.940Z,10.06
2023-04-02T00:30:01.958Z,10.11
2023-04-02T00:31:04.907Z,10.04
2023-04-02T00:32:12.531Z,10.02
2023-04-02T00:33:18.092Z,10.01
2023-04-02T00:34:32.551Z,10.04
2023-04-02T00:35:37.148Z,10.04
2023-04-02T00:36:41.547Z,10.06
2023-04-02T00:37:45.486Z,10.06
2023-04-02T00:38:50.282Z,10.03
2023-04-02T00:39:55.313Z,10.07
2023-04-02T00:41:01.518Z,10.10
2023-04-02T00:42:07.857Z,10.06
2023-04-02T00:43:14.191Z,10.05
2023-04-02T00:44:20.046Z,10.05
2023-04-02T00:45:25.364Z,10.04
2023-04-02T00:46:35.130Z,10.01
2023-04-02T00:47:40.598Z,10.02
2023-04-02T00:48:59.893Z,10.05
2023-04-02T00:50:04.143Z,9.99
2023-04-02T00:51:24.673Z,9.99
2023-04-02T00:52:29.639Z,9.95
2023-04-02T00:53:32.300Z,9.95
2023-04-02T00:54:37.477Z,9.89
2023-04-02T00:55:41.310Z,9.98
2023-04-02T00:56:48.029Z,9.94
2023-04-02T00:57:53.469Z,9.92
2023-04-02T00:58:59.546Z,9.99
2023-04-02T01:00:06.492Z,9.90
2023-04-02T01:01:23.372Z,9.90
2023-04-02T01:02:30.623Z,9.86
2023-04-02T01:03:37.146Z,10.00
2023-04-02T01:04:41.205Z,9.99
2023-04-02T01:05:46.063Z,10.03
2023-04-02T01:06:50.507Z,10.04
2023-04-02T01:07:55.599Z,10.05
2023-04-02T01:09:02.645Z,10.04
2023-04-02T01:10:11.122Z,10.04
2023-04-02T01:11:15.483Z,10.03
2023-04-02T01:12:28.293Z,10.05
2023-04-02T01:13:33.813Z,10.06
2023-04-02T01:41:02.180Z,10.01
2023-04-02T01:42:18.337Z,10.00
2023-04-02T01:43:38.441Z,10.02
2023-04-02T01:44:49.578Z,10.05
2023-04-02T01:45:53.005Z,10.06
2023-04-02T01:46:58.155Z,10.04
2023-04-02T01:48:01.823Z,10.06
2023-04-02T01:49:19.672Z,10.08
2023-04-02T01:50:29.757Z,10.01
2023-04-02T01:51:34.213Z,10.06
2023-04-02T01:52:41.255Z,10.08
2023-04-02T01:53:44.975Z,10.09
2023-04-02T01:54:49.324Z,10.11
2023-04-02T01:55:54.812Z,10.07
2023-04-02T01:56:58.916Z,10.10
2023-04-02T01:58:02.651Z,10.10
2023-04-02T01:59:07.409Z,10.07
2023-04-02T02:00:16.454Z,10.08
2023-04-02T02:01:24.612Z,10.10
2023-04-02T02:02:28.987Z,10.11
2023-04-02T02:03:33.951Z,10.06
2023-04-02T02:04:38.832Z,10.07
2023-04-02T02:05:43.174Z,9.97
2023-04-02T02:06:49.381Z,10.01
2023-04-02T02:07:53.033Z,9.99
2023-04-02T02:08:58.168Z,9.98
2023-04-02T02:10:01.682Z,9.95
2023-04-02T02:11:05.402Z,9.97
2023-04-02T02:12:11.846Z,9.99
2023-04-02T02:13:17.362Z,10.00
2023-04-02T02:14:23.650Z,9.88
2023-04-02T02:15:27.240Z,9.97
2023-04-02T02:16:33.070Z,9.99
2023-04-02T02:17:36.999Z,9.90
2023-04-02T02:18:39.349Z,9.86
2023-04-02T02:19:50.180Z,9.81
2023-04-02T02:20:53.768Z,9.92
2023-04-02T02:21:59.819Z,9.87
2023-04-02T02:23:04.663Z,9.93
2023-04-02T02:24:09.918Z,9.87
2023-04-02T02:25:27.057Z,9.92
2023-04-02T02:26:34.542Z,9.90
2023-04-02T02:27:40.958Z,9.85
2023-04-02T02:28:47.733Z,9.90
2023-04-02T02:29:58.557Z,9.92
2023-04-02T02:31:08.174Z,9.85
2023-04-02T02:32:13.536Z,9.85
2023-04-02T02:33:25.333Z,9.92
2023-04-02T02:34:34.844Z,9.92
2023-04-02T02:35:43.494Z,9.92
2023-04-02T02:36:57.542Z,9.88
2023-04-02T02:38:02.711Z,9.92
2023-04-02T02:39:21.059Z,9.91
2023-04-02T02:40:29.973Z,9.93
2023-04-02T02:41:40.176Z,9.90
2023-04-02T02:42:46.583Z,9.95
2023-04-02T02:43:51.764Z,9.92
2023-04-02T02:44:56.719Z,9.98
2023-04-02T02:46:01.920Z,9.98
2023-04-02T02:47:07.451Z,9.88
2023-04-02T02:48:12.843Z,9.83
2023-04-02T02:49:21.075Z,9.90
2023-04-02T02:50:25.414Z,9.95
2023-04-02T02:51:32.479Z,9.94
2023-04-02T02:52:37.550Z,9.94
2023-04-02T02:53:50.990Z,9.86
2023-04-02T02:54:59.488Z,9.76
2023-04-02T02:56:04.040Z,9.83
2023-04-02T02:57:11.258Z,9.70
2023-04-02T02:58:17.740Z,9.75
2023-04-02T02:59:23.124Z,9.85
2023-04-02T03:00:27.259Z,9.93
2023-04-02T03:01:31.682Z,9.96
2023-04-02T03:02:37.321Z,9.88
2023-04-02T03:03:42.575Z,9.88
2023-04-02T03:04:49.496Z,9.95
2023-04-02T03:05:59.813Z,9.88
2023-04-02T03:07:06.771Z,9.90
2023-04-02T03:08:14.990Z,9.80
2023-04-02T03:09:23.090Z,9.91
2023-04-02T03:11:46.799Z,9.89
2023-04-02T03:13:10.777Z,9.71
2023-04-02T03:14:17.295Z,9.75
2023-04-02T03:15:28.664Z,9.84
2023-04-02T03:16:34.994Z,9.80
2023-04-02T03:17:40.286Z,9.82
2023-04-02T03:18:49.618Z,9.91
2023-04-02T03:19:58.348Z,9.92
2023-04-02T03:21:19.187Z,9.80
2023-04-02T03:22:24.779Z,9.79
2023-04-02T03:23:42.378Z,9.80
2023-04-02T03:24:57.061Z,9.82
2023-04-02T03:26:10.740Z,9.96
2023-04-02T03:27:19.344Z,9.78
2023-04-02T03:28:25.043Z,9.74
2023-04-02T03:29:37.282Z,9.69
2023-04-02T03:30:44.151Z,9.70
2023-04-02T03:31:52.867Z,9.76
2023-04-02T03:32:59.549Z,9.78
2023-04-02T03:34:12.732Z,9.81
2023-04-02T03:35:17.075Z,9.79
2023-04-02T03:36:22.644Z,9.80
2023-04-02T03:37:31.291Z,9.86
2023-04-02T03:38:37.721Z,9.84
2023-04-02T03:39:45.814Z,9.88
2023-04-02T03:40:52.563Z,9.89
2023-04-02T03:42:02.232Z,9.83
2023-04-02T03:43:08.662Z,9.85
2023-04-02T03:44:12.895Z,9.91
2023-04-02T03:45:19.368Z,9.90
2023-04-02T03:46:34.509Z,9.83
2023-04-02T03:47:43.007Z,9.86
2023-04-02T03:48:51.393Z,9.87
2023-04-02T03:49:56.124Z,9.93
2023-04-02T03:51:20.620Z,9.80
2023-04-02T03:52:28.375Z,9.76
2023-04-02T03:53:32.889Z,9.84
2023-04-02T03:54:37.443Z,9.79
2023-04-02T03:55:42.156Z,9.81
2023-04-02T03:56:47.989Z,9.82
2023-04-02T03:57:54.270Z,9.81
2023-04-02T03:59:02.715Z,9.81
2023-04-02T04:00:09.571Z,9.74
2023-04-02T04:01:19.200Z,9.76
2023-04-02T04:02:36.710Z,9.81
2023-04-02T04:03:50.637Z,9.82
2023-04-02T04:04:54.781Z,9.86
2023-04-02T04:06:01.306Z,9.86
2023-04-02T04:07:05.356Z,9.85
2023-04-02T04:08:09.774Z,9.81
2023-04-02T04:09:17.795Z,9.76
2023-04-02T04:10:22.344Z,9.79
2023-04-02T04:11:30.840Z,9.85
2023-04-02T04:12:36.309Z,9.94
2023-04-02T04:13:42.468Z,9.92
2023-04-02T04:14:48.159Z,9.94
2023-04-02T04:15:58.043Z,9.91
2023-04-02T04:17:06.556Z,9.85
2023-04-02T04:18:30.356Z,9.73
2023-04-02T04:19:46.078Z,9.69
2023-04-02T04:21:00.735Z,9.84
2023-04-02T04:22:14.271Z,9.86
2023-04-02T04:23:21.411Z,9.90
2023-04-02T04:24:25.246Z,9.92
2023-04-02T04:25:31.891Z,9.90
2023-04-02T04:26:42.175Z,9.86
2023-04-02T04:28:03.025Z,9.90
2023-04-02T04:29:17.290Z,9.94
2023-04-02T04:30:31.029Z,9.98
2023-04-02T04:31:39.861Z,10.02
2023-04-02T04:32:49.863Z,10.06
2023-04-02T04:34:01.465Z,9.94
2023-04-02T04:35:22.131Z,9.90
2023-04-02T04:36:29.115Z,9.87
2023-04-02T04:37:39.864Z,9.95
2023-04-02T04:38:47.669Z,9.99
2023-04-02T04:40:00.158Z,9.94
2023-04-02T04:41:11.198Z,9.95
2023-04-02T04:42:16.050Z,10.05
2023-04-02T04:43:23.002Z,9.95
2023-04-02T04:44:30.370Z,9.95
2023-04-02T04:45:42.952Z,9.95
2023-04-02T04:46:55.672Z,9.97
2023-04-02T04:48:04.032Z,10.04
2023-04-02T04:49:09.990Z,10.11
2023-04-02T04:50:18.426Z,10.14
2023-04-02T04:51:24.833Z,10.02
2023-04-02T04:52:39.177Z,10.08
2023-04-02T04:53:55.921Z,10.11
2023-04-02T04:55:01.462Z,10.13
2023-04-02T04:56:18.126Z,10.08
2023-04-02T04:57:32.706Z,9.96
2023-04-02T04:58:50.204Z,10.10
2023-04-02T04:59:55.970Z,9.93
2023-04-02T05:01:02.354Z,10.03
2023-04-02T05:02:08.031Z,10.07
2023-04-02T05:03:18.750Z,10.15
2023-04-02T05:04:24.132Z,10.17
2023-04-02T05:05:32.442Z,10.12
2023-04-02T05:06:43.664Z,10.15
2023-04-02T05:07:52.813Z,10.10
2023-04-02T05:08:57.760Z,10.21
2023-04-02T05:10:21.761Z,10.17
2023-04-02T05:11:26.106Z,10.26
2023-04-02T05:12:36.488Z,10.24
2023-04-02T05:13:55.589Z,10.34
2023-04-02T05:15:01.474Z,10.32
2023-04-02T05:16:24.553Z,10.27
2023-04-02T05:17:39.000Z,10.20
2023-04-02T05:18:54.695Z,10.33
2023-04-02T05:20:07.192Z,10.41
2023-04-02T05:21:30.558Z,10.44
2023-04-02T05:22:53.799Z,10.26
2023-04-02T05:23:59.702Z,10.30
2023-04-02T05:25:11.558Z,10.29
2023-04-02T05:26:17.362Z,10.39
2023-04-02T05:27:24.511Z,10.37
2023-04-02T05:28:46.504Z,10.41
2023-04-02T05:29:52.409Z,10.50
2023-04-02T05:30:57.230Z,10.38
2023-04-02T05:32:05.166Z,10.46
2023-04-02T05:33:19.438Z,10.56
2023-04-02T05:34:25.242Z,10.55
2023-04-02T05:35:32.747Z,10.45
2023-04-02T05:36:36.430Z,10.40
2023-04-02T05:37:44.040Z,10.51
2023-04-02T05:38:51.811Z,10.52
2023-04-02T05:39:59.118Z,10.56
2023-04-02T05:41:12.061Z,10.61
2023-04-02T05:42:20.997Z,10.59
2023-04-02T05:43:27.335Z,10.33
2023-04-02T05:44:33.364Z,10.36
2023-04-02T05:45:39.607Z,10.41
2023-04-02T05:46:45.185Z,10.54
2023-04-02T05:47:49.828Z,10.66
2023-04-02T05:48:59.723Z,10.53
2023-04-02T05:50:06.506Z,10.43
2023-04-02T05:51:13.748Z,10.40
2023-04-02T05:52:23.585Z,10.37
2023-04-02T05:53:31.886Z,10.00
2023-04-02T05:54:37.375Z,10.18
2023-04-02T05:55:43.279Z,10.35
2023-04-02T05:56:49.848Z,10.44
2023-04-02T05:58:21.490Z,10.26
2023-04-02T05:59:08.877Z,10.37
2023-04-02T06:00:14.234Z,10.30
2023-04-02T06:01:26.753Z,10.36
2023-04-02T06:02:33.955Z,10.41
2023-04-02T06:03:51.482Z,10.40
2023-04-02T06:06:28.462Z,10.46
2023-04-02T06:07:37.698Z,10.18
2023-04-02T06:08:43.843Z,10.31
2023-04-02T06:09:48.156Z,10.44
2023-04-02T06:10:57.017Z,10.39
2023-04-02T06:12:21.191Z,10.42
2023-04-02T06:13:26.679Z,10.17
2023-04-02T06:14:31.853Z,10.21
2023-04-02T06:15:38.405Z,10.25
2023-04-02T06:16:45.561Z,10.38
2023-04-02T06:17:50.214Z,10.46
2023-04-02T06:18:54.122Z,10.53
2023-04-02T06:19:58.795Z,10.56
2023-04-02T06:21:02.803Z,10.61
2023-04-02T06:22:27.833Z,10.54
2023-04-02T06:23:35.963Z,10.51
2023-04-02T06:24:42.154Z,10.51
2023-04-02T06:26:01.220Z,10.42
2023-04-02T06:27:10.356Z,10.49
2023-04-02T06:28:17.422Z,10.38
2023-04-02T06:29:38.115Z,10.46
2023-04-02T06:30:41.936Z,10.38
2023-04-02T06:31:49.334Z,10.35
2023-04-02T06:32:55.169Z,10.25
2023-04-02T06:33:58.129Z,10.26
2023-04-02T06:35:03.504Z,10.35
2023-04-02T06:36:08.461Z,10.46
2023-04-02T06:37:27.682Z,10.50
2023-04-02T06:38:33.345Z,10.51
2023-04-02T06:39:38.012Z,10.63
2023-04-02T06:40:48.636Z,10.67
2023-04-02T06:42:03.201Z,10.55
2023-04-02T06:43:38.348Z,10.57
2023-04-02T06:44:43.862Z,10.61
2023-04-02T06:46:09.308Z,10.50
2023-04-02T06:47:35.163Z,10.42
2023-04-02T06:50:02.835Z,10.40
2023-04-02T06:51:07.683Z,10.30
2023-04-02T06:52:13.829Z,10.40
2023-04-02T06:53:24.988Z,10.42
2023-04-02T06:54:28.978Z,10.35
2023-04-02T06:55:35.245Z,10.39
2023-04-02T06:56:40.774Z,10.33
2023-04-02T06:57:46.432Z,10.21
2023-04-02T06:58:50.081Z,10.23
2023-04-02T06:59:53.696Z,10.29
2023-04-02T07:00:59.083Z,10.27
2023-04-02T07:02:27.998Z,10.28
2023-04-02T07:03:32.603Z,10.33
2023-04-02T07:04:37.336Z,10.33
2023-04-02T07:05:44.162Z,10.39
2023-04-02T07:06:47.724Z,10.36
2023-04-02T07:07:52.902Z,10.42
2023-04-02T07:08:57.786Z,10.53
2023-04-02T07:10:02.118Z,10.51
2023-04-02T07:11:05.400Z,10.43
2023-04-02T07:12:11.786Z,10.38
2023-04-02T07:13:20.146Z,10.53
2023-04-02T07:14:24.690Z,10.46
2023-04-02T07:15:29.776Z,10.59
2023-04-02T07:16:35.190Z,10.66
2023-04-02T07:17:38.570Z,10.60
2023-04-02T07:18:42.574Z,10.60
2023-04-02T07:19:48.902Z,10.76
2023-04-02T07:20:57.405Z,10.84
2023-04-02T07:22:01.125Z,10.84
2023-04-02T07:23:07.876Z,10.86
2023-04-02T07:24:11.373Z,10.86
2023-04-02T07:25:13.834Z,10.82
2023-04-02T07:26:20.096Z,10.81
2023-04-02T07:27:22.830Z,10.82
2023-04-02T07:28:25.604Z,10.75
2023-04-02T07:29:28.284Z,10.89
2023-04-02T07:30:35.951Z,11.00
2023-04-02T07:31:41.220Z,10.84
2023-04-02T07:32:44.164Z,10.79
2023-04-02T07:33:46.467Z,10.53
2023-04-02T07:34:49.972Z,10.56
2023-04-02T07:35:53.929Z,10.67
2023-04-02T07:36:56.661Z,10.82
2023-04-02T07:38:00.287Z,10.89
2023-04-02T07:39:04.005Z,10.95
2023-04-02T07:40:09.014Z,10.99
2023-04-02T07:41:13.391Z,11.11
2023-04-02T07:42:16.821Z,10.91
2023-04-02T07:43:20.090Z,10.88
2023-04-02T07:44:27.181Z,10.85
2023-04-02T07:45:31.512Z,10.77
2023-04-02T07:47:47.322Z,10.88
2023-04-02T07:48:50.788Z,10.71
2023-04-02T07:49:54.934Z,10.76
2023-04-02T07:50:57.786Z,10.80
2023-04-02T07:52:02.546Z,10.74
2023-04-02T07:53:07.494Z,10.68
2023-04-02T07:54:11.240Z,10.71
2023-04-02T07:55:15.068Z,10.79
2023-04-02T07:56:20.203Z,10.77
2023-04-02T07:57:23.910Z,10.57
2023-04-02T07:58:28.837Z,10.60
2023-04-02T07:59:32.331Z,10.65
2023-04-02T08:00:35.600Z,10.53
2023-04-02T08:01:38.755Z,10.52
2023-04-02T08:02:44.364Z,10.50
2023-04-02T08:03:48.195Z,10.52
2023-04-02T08:04:51.413Z,10.56
2023-04-02T08:05:56.009Z,10.54
2023-04-02T08:06:59.058Z,10.39
2023-04-02T08:08:02.664Z,10.26
2023-04-02T08:09:08.089Z,10.19
2023-04-02T08:10:14.446Z,10.25
2023-04-02T08:11:20.165Z,10.23
2023-04-02T08:12:23.459Z,10.18
2023-04-02T08:13:26.915Z,10.26
2023-04-02T08:14:30.521Z,10.21
2023-04-02T08:15:34.255Z,10.23
2023-04-02T08:16:45.019Z,10.27
2023-04-02T08:17:48.319Z,10.24
2023-04-02T08:18:51.804Z,10.15
2023-04-02T08:19:55.724Z,10.28
2023-04-02T08:20:59.339Z,10.36
2023-04-02T08:22:03.686Z,10.37
2023-04-02T08:23:10.096Z,10.28
2023-04-02T08:24:14.237Z,10.33
2023-04-02T08:25:17.227Z,10.52
2023-04-02T08:26:20.819Z,10.57
2023-04-02T08:27:24.866Z,10.57
2023-04-02T08:28:28.194Z,10.57
2023-04-02T08:29:34.154Z,10.51
2023-04-02T08:30:36.975Z,10.41
2023-04-02T08:31:40.758Z,10.44
2023-04-02T08:32:44.648Z,10.38
2023-04-02T08:33:48.949Z,10.51
2023-04-02T08:34:52.738Z,10.27
2023-04-02T08:35:59.827Z,10.23
2023-04-02T08:37:03.294Z,10.32
2023-04-02T08:38:06.685Z,10.29
2023-04-02T08:39:12.608Z,10.35
2023-04-02T08:40:17.873Z,10.34
2023-04-02T08:41:24.733Z,10.49
2023-04-02T08:42:32.298Z,10.41
2023-04-02T08:43:54.186Z,10.45
2023-04-02T08:45:20.830Z,10.29
2023-04-02T08:46:18.114Z,10.24
2023-04-02T08:47:25.185Z,10.29
2023-04-02T08:48:29.620Z,10.23
2023-04-02T08:49:46.293Z,10.39
2023-04-02T08:50:49.695Z,10.54
2023-04-02T08:51:53.201Z,10.58
2023-04-02T08:52:58.061Z,10.50
2023-04-02T08:54:04.021Z,10.46
2023-04-02T08:55:11.222Z,10.60
2023-04-02T08:56:18.604Z,10.58
2023-04-02T08:57:29.638Z,10.58
2023-04-02T08:58:34.810Z,10.61
2023-04-02T08:59:42.178Z,10.62
2023-04-02T09:00:47.092Z,10.69
2023-04-02T09:01:53.780Z,10.66
2023-04-02T09:02:59.132Z,10.65
2023-04-02T09:04:04.008Z,10.50
2023-04-02T09:05:12.192Z,10.50
2023-04-02T09:06:18.264Z,10.33
2023-04-02T09:07:21.321Z,10.36
2023-04-02T09:08:25.466Z,10.31
2023-04-02T09:09:29.278Z,10.35
2023-04-02T09:10:39.159Z,10.45
2023-04-02T09:11:44.336Z,10.42
2023-04-02T09:12:52.189Z,10.32
2023-04-02T09:13:57.913Z,10.30
2023-04-02T09:15:03.200Z,10.35
2023-04-02T09:16:10.390Z,10.42
2023-04-02T09:17:42.755Z,10.38
2023-04-02T09:18:39.981Z,10.58
2023-04-02T09:19:45.843Z,10.55
2023-04-02T09:20:49.452Z,10.62
2023-04-02T09:21:58.709Z,10.64
2023-04-02T09:23:02.559Z,10.66
2023-04-02T09:24:05.492Z,10.63
2023-04-02T09:25:11.523Z,10.47
2023-04-02T09:26:23.092Z,10.54
2023-04-02T09:27:28.893Z,10.56
2023-04-02T09:28:32.529Z,10.45
2023-04-02T09:29:44.880Z,10.44
2023-04-02T09:30:55.673Z,10.25
2023-04-02T09:32:11.820Z,10.37
2023-04-02T09:33:15.105Z,10.51
2023-04-02T09:34:29.677Z,10.57
2023-04-02T09:35:33.646Z,10.67
2023-04-02T09:36:38.607Z,10.61
2023-04-02T09:37:42.191Z,10.61
2023-04-02T09:39:02.547Z,10.65
2023-04-02T09:40:25.014Z,10.75
2023-04-02T09:41:29.386Z,10.78
2023-04-02T09:42:37.264Z,10.83
2023-04-02T09:43:40.025Z,10.76
2023-04-02T09:44:43.368Z,10.73
2023-04-02T09:45:49.341Z,10.73
2023-04-02T09:47:01.689Z,10.92
2023-04-02T09:48:07.469Z,11.03
2023-04-02T09:49:13.111Z,10.92
2023-04-02T09:50:23.205Z,10.91
2023-04-02T09:51:29.021Z,10.93
2023-04-02T09:52:32.621Z,10.81
2023-04-02T09:53:38.678Z,10.88
2023-04-02T09:54:42.741Z,10.79
2023-04-02T09:55:48.877Z,10.91
2023-04-02T09:57:06.359Z,10.96
2023-04-02T09:58:18.744Z,10.87
2023-04-02T09:59:23.618Z,10.83
2023-04-02T10:00:32.574Z,10.58
2023-04-02T10:01:36.663Z,10.65
2023-04-02T10:02:43.472Z,10.67
2023-04-02T10:03:50.192Z,10.63
2023-04-02T10:04:53.636Z,10.55
2023-04-02T10:06:05.503Z,10.48
2023-04-02T10:07:11.961Z,10.57
2023-04-02T10:08:22.738Z,10.47
2023-04-02T10:09:30.263Z,10.56
2023-04-02T10:10:35.484Z,10.38
2023-04-02T10:11:46.446Z,10.49
2023-04-02T10:12:44.641Z,10.59
2023-04-02T10:13:56.139Z,10.67
2023-04-02T10:15:01.470Z,10.67
2023-04-02T10:16:16.268Z,10.61
2023-04-02T10:17:22.742Z,10.69
2023-04-02T10:18:44.331Z,10.69
2023-04-02T10:19:48.380Z,10.83
2023-04-02T10:20:53.137Z,10.85
2023-04-02T10:21:57.702Z,10.75
2023-04-02T10:23:03.307Z,10.86
2023-04-02T10:24:13.794Z,10.77
2023-04-02T10:25:20.465Z,10.81
2023-04-02T10:26:33.584Z,10.84
2023-04-02T10:27:44.146Z,10.86
2023-04-02T10:29:06.881Z,10.83
2023-04-02T10:30:19.056Z,10.94
2023-04-02T10:31:26.270Z,10.95
2023-04-02T10:32:43.718Z,10.82
2023-04-02T10:33:50.596Z,10.92
2023-04-02T10:35:04.841Z,11.01
2023-04-02T10:36:12.993Z,10.97
2023-04-02T10:37:26.983Z,10.82
2023-04-02T10:38:48.049Z,10.86
2023-04-02T10:39:55.405Z,10.97
2023-04-02T10:41:02.242Z,10.91
2023-04-02T10:42:18.331Z,10.93
2023-04-02T10:43:33.187Z,10.96
2023-04-02T10:46:02.852Z,11.08
2023-04-02T10:47:10.431Z,10.87
2023-04-02T10:48:21.348Z,10.94
2023-04-02T10:49:41.532Z,10.85
2023-04-02T10:50:50.245Z,10.92
2023-04-02T10:51:58.188Z,10.89
2023-04-02T10:53:17.470Z,10.97
2023-04-02T10:54:23.690Z,10.96
2023-04-02T10:55:28.810Z,11.00
2023-04-02T10:56:44.429Z,10.97
2023-04-02T10:57:46.309Z,11.03
2023-04-02T10:58:55.566Z,11.12
2023-04-02T11:00:10.263Z,11.16
2023-04-02T11:01:16.693Z,10.97
2023-04-02T11:02:23.182Z,11.06
2023-04-02T11:03:28.149Z,11.08
2023-04-02T11:04:33.784Z,11.11
2023-04-02T11:05:45.113Z,11.15
2023-04-02T11:06:50.374Z,11.27
2023-04-02T11:07:57.838Z,11.25
2023-04-02T11:09:04.432Z,11.31
2023-04-02T11:10:09.291Z,11.36
2023-04-02T11:11:14.652Z,11.34
2023-04-02T11:12:26.407Z,11.34
2023-04-02T11:13:43.928Z,11.40
2023-04-02T11:14:49.491Z,11.45
2023-04-02T11:15:55.759Z,11.44
2023-04-02T11:17:02.231Z,11.29
2023-04-02T11:18:09.482Z,11.34
2023-04-02T11:19:19.609Z,11.51
2023-04-02T11:20:40.298Z,11.44
2023-04-02T11:21:58.091Z,11.35
2023-04-02T11:23:06.992Z,11.25
2023-04-02T11:24:29.940Z,11.24
2023-04-02T11:25:33.460Z,11.36
2023-04-02T11:26:44.248Z,11.41
2023-04-02T11:27:47.498Z,11.36
2023-04-02T11:28:51.046Z,11.18
2023-04-02T11:30:05.081Z,11.23
2023-04-02T11:31:07.775Z,11.44
2023-04-02T11:32:16.397Z,11.36
2023-04-02T11:33:39.231Z,11.25
2023-04-02T11:34:47.046Z,11.27
2023-04-02T11:35:52.048Z,11.19
2023-04-02T11:36:59.345Z,11.25
2023-04-02T11:38:04.105Z,11.17
2023-04-02T11:39:16.915Z,11.17
2023-04-02T11:40:16.335Z,10.93
2023-04-02T11:41:22.992Z,10.96
2023-04-02T11:42:27.618Z,11.01
2023-04-02T11:43:37.322Z,11.18
2023-04-02T11:44:40.700Z,11.05
2023-04-02T11:45:52.583Z,11.20
2023-04-02T11:46:52.031Z,11.36
2023-04-02T11:48:07.350Z,11.42
2023-04-02T11:49:12.985Z,11.48
2023-04-02T11:50:18.898Z,11.45
2023-04-02T11:51:25.228Z,11.36
2023-04-02T11:52:30.936Z,11.40
2023-04-02T11:53:36.546Z,11.25
2023-04-02T11:54:40.245Z,11.18
2023-04-02T11:55:44.595Z,11.20
2023-04-02T11:56:50.695Z,11.35
2023-04-02T11:58:11.536Z,11.24
2023-04-02T11:59:16.912Z,11.25
2023-04-02T12:00:27.825Z,11.31
2023-04-02T12:01:48.181Z,11.10
2023-04-02T12:02:59.115Z,11.18
2023-04-02T12:04:05.618Z,11.09
2023-04-02T12:05:11.013Z,11.08
2023-04-02T12:06:27.347Z,11.06
2023-04-02T12:07:39.354Z,11.07
2023-04-02T12:08:57.191Z,11.13
2023-04-02T12:09:56.193Z,11.25
2023-04-02T12:12:22.867Z,11.15
2023-04-02T12:13:42.898Z,11.07
2023-04-02T12:14:47.973Z,11.01
2023-04-02T12:15:53.033Z,10.81
2023-04-02T12:16:56.358Z,10.92
2023-04-02T12:18:06.556Z,10.97
2023-04-02T12:19:10.349Z,11.01
2023-04-02T12:20:24.194Z,10.83
2023-04-02T12:21:31.736Z,10.99
2023-04-02T12:22:37.503Z,10.98
2023-04-02T12:23:41.929Z,11.00
2023-04-02T12:24:47.426Z,11.11
2023-04-02T12:26:00.026Z,10.90
2023-04-02T12:27:14.147Z,10.85
2023-04-02T12:28:21.531Z,10.90
2023-04-02T12:29:28.904Z,10.93
2023-04-02T12:30:33.028Z,10.93
2023-04-02T12:31:36.322Z,11.05
2023-04-02T12:32:39.748Z,10.98
2023-04-02T12:33:45.425Z,10.92
2023-04-02T12:34:49.122Z,10.74
2023-04-02T12:35:59.062Z,10.52
2023-04-02T12:37:04.441Z,10.49
2023-04-02T12:38:09.676Z,10.44
2023-04-02T12:39:14.736Z,10.55
2023-04-02T12:40:19.136Z,10.62
2023-04-02T12:41:24.634Z,10.41
2023-04-02T12:42:35.493Z,10.34
2023-04-02T12:43:40.420Z,10.33
2023-04-02T12:44:45.339Z,10.34
2023-04-02T12:45:54.668Z,10.17
2023-04-02T12:46:59.980Z,10.33
2023-04-02T12:48:05.445Z,10.21
2023-04-02T12:49:11.035Z,10.38
2023-04-02T12:50:16.962Z,10.44
2023-04-02T12:51:19.831Z,10.28
2023-04-02T12:52:25.210Z,10.09
2023-04-02T12:53:39.793Z,10.33
2023-04-02T12:54:56.036Z,10.50
2023-04-02T12:55:59.465Z,10.53
2023-04-02T12:57:20.860Z,10.65
2023-04-02T12:58:39.880Z,10.67
2023-04-02T12:59:43.696Z,10.65
2023-04-02T13:00:48.026Z,10.78
2023-04-02T13:02:03.352Z,10.67
2023-04-02T13:03:10.083Z,10.67
2023-04-02T13:04:17.829Z,10.43
2023-04-02T13:05:38.852Z,10.51
2023-04-02T13:06:45.252Z,10.56
2023-04-02T13:07:49.700Z,10.36
2023-04-02T13:08:56.656Z,10.16
2023-04-02T13:10:03.049Z,10.02
2023-04-02T13:11:06.793Z,10.06
2023-04-02T13:12:30.262Z,10.11
2023-04-02T13:13:35.490Z,10.15
2023-04-02T13:14:38.812Z,10.04
2023-04-02T13:15:45.363Z,10.06
2023-04-02T13:16:49.175Z,10.13
2023-04-02T13:18:05.586Z,9.98
2023-04-02T13:19:11.883Z,10.02
2023-04-02T13:20:30.617Z,10.22
2023-04-02T13:21:34.862Z,10.28
2023-04-02T13:22:39.598Z,10.27
2023-04-02T13:23:42.377Z,10.40
2023-04-02T13:24:45.512Z,10.37
2023-04-02T13:25:48.708Z,10.43
2023-04-02T13:26:53.716Z,10.52
2023-04-02T13:28:01.443Z,10.61
2023-04-02T13:29:10.171Z,10.55
2023-04-02T13:30:16.252Z,10.46
2023-04-02T13:31:21.777Z,10.42
2023-04-02T13:32:25.809Z,10.34
2023-04-02T13:33:28.232Z,10.31
2023-04-02T13:34:31.935Z,10.30
2023-04-02T13:35:35.048Z,10.31
2023-04-02T13:36:38.864Z,10.37
2023-04-02T13:37:42.459Z,10.49
2023-04-02T13:38:58.174Z,10.60
2023-04-02T13:40:02.318Z,10.58
2023-04-02T13:41:06.437Z,10.46
2023-04-02T13:42:12.135Z,10.40
2023-04-02T13:43:24.043Z,10.46
2023-04-02T13:44:29.597Z,10.45
2023-04-02T13:45:33.631Z,10.55
2023-04-02T13:46:37.448Z,10.67
2023-04-02T13:47:41.328Z,10.73
2023-04-02T13:48:47.973Z,10.51
2023-04-02T13:49:51.199Z,10.54
2023-04-02T13:50:54.191Z,10.51
2023-04-02T13:52:00.585Z,10.49
2023-04-02T13:53:07.768Z,10.52
2023-04-02T13:54:15.330Z,10.49
2023-04-02T13:55:21.675Z,10.29
2023-04-02T13:56:26.021Z,10.20
2023-04-02T13:57:30.367Z,10.30
2023-04-02T13:58:33.972Z,10.16
2023-04-02T13:59:37.068Z,10.42
2023-04-02T14:00:41.811Z,10.61
2023-04-02T14:01:47.540Z,10.61
2023-04-02T14:02:58.148Z,10.64
2023-04-02T14:04:02.858Z,10.47
2023-04-02T14:05:14.318Z,10.44
2023-04-02T14:06:22.673Z,10.52
2023-04-02T14:07:44.297Z,10.37
2023-04-02T14:09:06.539Z,10.32
2023-04-02T14:10:12.798Z,10.43
2023-04-02T14:11:17.983Z,10.58
2023-04-02T14:12:23.096Z,10.58
2023-04-02T14:13:27.999Z,10.69
2023-04-02T14:14:32.045Z,10.75
2023-04-02T14:15:46.691Z,10.52
2023-04-02T14:17:01.316Z,10.66
2023-04-02T14:18:22.354Z,10.63
2023-04-02T14:19:28.126Z,10.45
2023-04-02T14:20:33.389Z,10.60
2023-04-02T14:21:46.939Z,10.74
2023-04-02T14:22:52.047Z,10.49
2023-04-02T14:23:57.924Z,10.33
2023-04-02T14:25:17.791Z,10.26
2023-04-02T14:26:26.406Z,10.25
2023-04-02T14:27:37.900Z,10.28
2023-04-02T14:29:01.965Z,10.32
2023-04-02T14:30:07.055Z,10.28
2023-04-02T14:31:13.309Z,10.16
2023-04-02T14:32:27.544Z,10.23
2023-04-02T14:33:35.341Z,10.11
2023-04-02T14:34:44.465Z,9.94
2023-04-02T14:35:52.359Z,9.96
2023-04-02T14:36:58.123Z,9.87
2023-04-02T14:38:03.187Z,9.94
2023-04-02T14:39:10.338Z,10.04
2023-04-02T14:40:23.057Z,10.14
2023-04-02T14:41:30.101Z,10.17
2023-04-02T14:42:51.933Z,10.22
2023-04-02T14:43:56.954Z,10.27
2023-04-02T14:45:04.592Z,10.29
2023-04-02T14:46:12.158Z,10.28
2023-04-02T14:47:17.098Z,10.24
2023-04-02T14:48:25.325Z,10.23
2023-04-02T14:49:40.139Z,10.12
2023-04-02T14:50:43.553Z,10.28
2023-04-02T14:51:51.550Z,10.09
2023-04-02T14:52:56.005Z,10.08
2023-04-02T14:54:01.091Z,10.20
2023-04-02T14:55:09.172Z,10.20
2023-04-02T14:56:13.605Z,10.04
2023-04-02T14:57:28.191Z,10.07
2023-04-02T14:58:47.935Z,10.02
2023-04-02T15:00:10.940Z,10.00
2023-04-02T15:01:16.993Z,10.27
2023-04-02T15:02:38.862Z,10.39
2023-04-02T15:03:44.617Z,10.28
2023-04-02T15:04:50.908Z,10.18
2023-04-02T15:06:00.764Z,10.30
2023-04-02T15:07:04.885Z,10.26
2023-04-02T15:08:10.818Z,10.33
2023-04-02T15:09:17.039Z,10.36
2023-04-02T15:10:26.279Z,10.38
2023-04-02T15:11:31.461Z,10.44
2023-04-02T15:12:38.310Z,10.51
2023-04-02T15:13:47.425Z,10.22
2023-04-02T15:14:59.047Z,10.20
2023-04-02T15:16:04.459Z,10.35